Time;durP1;ratioP1;P1;durP2;ratioP2;P2;SDS_P1;SDS_P2;PMS_P1;PMS_P2;Temp;Humidity;BMP_temperature;BMP_pressure;BME280_temperature;BME280_humidity;BME280_pressure;Samples;Min_cycle;Max_cycle;Signal;HPM_P1;HPM_P2
2022/08/05 00:01:33;;;;;;;2.25;2.15;;;23.50;99.90;;;23.83;62.29;101475.09;5094410;28;20043;-67
2022/08/05 00:04:17;;;;;;;2.10;2.00;;;23.50;99.90;;;23.62;62.33;101459.06;5094610;28;20051;-67
2022/08/05 00:06:46;;;;;;;2.15;2.05;;;23.50;99.90;;;23.80;62.78;101490.59;5094051;28;20036;-68
2022/08/05 00:09:19;;;;;;;2.40;2.30;;;23.40;99.90;;;23.81;63.16;101492.34;5094074;28;20071;-67
2022/08/05 00:11:48;;;;;;;2.20;2.10;;;23.40;99.90;;;23.82;62.90;101505.78;5094230;28;20051;-67
2022/08/05 00:14:27;;;;;;;2.00;1.90;;;23.40;99.90;;;23.78;63.05;101501.47;5093897;28;20048;-67
2022/08/05 00:16:58;;;;;;;1.98;1.88;;;23.40;99.90;;;23.80;63.18;101501.41;5094402;28;20047;-67
2022/08/05 00:19:31;;;;;;;1.90;1.83;;;23.40;99.90;;;23.73;63.24;101492.69;5094182;28;20382;-67
2022/08/05 00:22:08;;;;;;;2.50;2.40;;;23.40;99.90;;;23.83;62.87;101507.53;5094072;28;20046;-66
2022/08/05 00:24:38;;;;;;;2.30;2.20;;;23.40;99.90;;;23.93;62.70;101507.94;5093832;28;20457;-67
2022/08/05 00:27:10;;;;;;;2.35;2.25;;;23.50;99.90;;;23.83;62.96;101515.63;5093915;28;20051;-66
2022/08/05 00:29:44;;;;;;;2.83;2.72;;;23.40;99.90;;;23.79;63.05;101511.31;5075789;28;20493;-66
2022/08/05 00:32:12;;;;;;;2.30;2.20;;;23.40;99.90;;;23.76;62.89;101506.09;5093577;28;20115;-66
2022/08/05 00:34:45;;;;;;;2.72;2.63;;;23.50;99.90;;;23.78;63.07;101501.47;5093250;28;20051;-66
2022/08/05 00:37:34;;;;;;;2.20;2.10;;;23.40;99.90;;;23.60;63.59;101488.84;5093843;28;20120;-66
2022/08/05 00:40:24;;;;;;;2.22;2.13;;;23.40;99.90;;;23.69;63.47;101504.59;5093469;28;20048;-66
2022/08/05 00:42:58;;;;;;;2.40;2.30;;;23.30;99.90;;;23.53;63.75;101482.00;5093494;28;20047;-67
2022/08/05 00:45:26;;;;;;;2.38;2.28;;;23.30;99.90;;;23.68;63.41;101500.16;5093722;28;20059;-67
2022/08/05 00:48:12;;;;;;;2.22;2.13;;;23.30;99.90;;;23.64;63.55;101506.66;5093664;28;20047;-67
2022/08/05 00:50:46;;;;;;;2.50;2.40;;;23.30;99.90;;;23.66;63.73;101498.47;5093356;28;20040;-66
2022/08/05 00:53:16;;;;;;;2.33;2.22;;;23.30;99.90;;;23.61;64.03;101492.44;5093591;28;20076;-67
2022/08/05 00:56:05;;;;;;;2.30;2.20;;;23.30;99.90;;;23.50;63.86;101492.94;5093299;28;20078;-67
2022/08/05 00:58:35;;;;;;;2.35;2.25;;;23.20;99.90;;;23.61;63.42;101501.44;5093383;28;20036;-67
2022/08/05 01:01:04;;;;;;;2.08;1.98;;;23.30;99.90;;;23.47;64.11;101503.91;5093365;28;20065;-66
2022/08/05 01:03:36;;;;;;;2.28;2.17;;;23.20;99.90;;;23.49;64.13;101504.72;5093197;28;20396;-66
2022/08/05 01:06:07;;;;;;;2.40;2.30;;;23.20;99.90;;;23.45;64.11;101495.00;5093411;28;20429;-67
2022/08/05 01:08:41;;;;;;;2.30;2.20;;;23.10;99.90;;;23.40;64.57;101506.97;5093786;28;20046;-66
2022/08/05 01:11:17;;;;;;;2.05;1.95;;;23.10;99.90;;;23.38;64.64;101498.06;5093219;28;20451;-67
2022/08/05 01:14:11;;;;;;;2.40;2.30;;;23.00;99.90;;;23.53;64.41;101513.53;5093463;28;20449;-66
2022/08/05 01:16:49;;;;;;;2.28;2.17;;;23.10;99.90;;;23.53;64.41;101525.22;5093153;28;20044;-66
2022/08/05 01:19:35;;;;;;;2.08;1.98;;;23.20;99.90;;;23.47;64.75;101530.91;5093158;28;20558;-66
2022/08/05 01:22:39;;;;;;;2.30;2.20;;;23.10;99.90;;;23.48;64.69;101539.91;5092951;28;20047;-66
2022/08/05 01:25:54;;;;;;;2.22;2.13;;;23.10;99.90;;;23.42;64.79;101532.97;5093056;28;20040;-67
2022/08/05 01:28:33;;;;;;;2.13;2.03;;;23.10;99.90;;;23.39;64.45;101516.00;5088195;28;20144;-66
2022/08/05 01:31:09;;;;;;;2.42;2.33;;;23.10;99.90;;;23.51;65.04;101548.72;5092999;28;20047;-66
2022/08/05 01:33:45;;;;;;;2.40;2.30;;;23.10;99.90;;;23.47;64.98;101554.34;5093239;28;20089;-66
2022/08/05 01:36:22;;;;;;;2.20;2.10;;;23.10;99.90;;;23.36;64.97;101532.38;5093237;28;20081;-66
2022/08/05 01:38:56;;;;;;;2.63;2.53;;;23.10;99.90;;;22.98;64.84;101474.69;5093455;28;20069;-66
2022/08/05 01:41:35;;;;;;;2.30;2.20;;;23.20;99.90;;;23.48;64.93;101545.31;5092716;28;20101;-68
2022/08/05 01:44:08;;;;;;;2.25;2.15;;;23.10;99.90;;;23.47;64.48;101552.53;5092860;28;20062;-66
2022/08/05 01:46:40;;;;;;;2.20;2.10;;;23.10;99.90;;;23.43;64.64;101542.81;5093855;28;20040;-66
2022/08/05 01:49:19;;;;;;;2.17;2.08;;;23.10;99.90;;;23.43;64.12;101540.09;5097313;28;20044;-66
2022/08/05 01:51:56;;;;;;;2.35;2.25;;;23.10;99.90;;;23.47;64.46;101536.31;5097015;28;20040;-66
2022/08/05 01:54:32;;;;;;;2.10;2.00;;;23.10;99.90;;;23.45;64.24;101522.00;5078769;28;20072;-66
2022/08/05 01:57:14;;;;;;;2.20;2.10;;;23.10;99.90;;;23.45;64.19;101538.22;5096619;28;20109;-66
2022/08/05 02:00:07;;;;;;;2.30;2.20;;;23.10;99.90;;;23.44;64.44;101506.72;5096859;28;20063;-66
2022/08/05 02:02:43;;;;;;;2.28;2.17;;;23.10;99.90;;;23.45;64.35;101522.00;5096446;28;20064;-66
2022/08/05 02:05:22;;;;;;;2.42;2.33;;;23.10;99.90;;;23.54;64.18;101518.84;5096479;28;20119;-67
2022/08/05 02:07:56;;;;;;;2.45;2.35;;;23.20;99.90;;;23.30;64.45;101501.09;5096701;28;20138;-66
2022/08/05 02:10:35;;;;;;;2.33;2.22;;;23.10;99.90;;;23.43;64.09;101498.72;5096483;28;20063;-67
2022/08/05 02:13:13;;;;;;;2.20;2.10;;;23.10;99.90;;;23.36;64.31;101511.66;5096636;28;20566;-66
2022/08/05 02:15:50;;;;;;;2.37;2.27;;;23.00;99.90;;;23.31;64.64;101508.25;5096843;28;20036;-66
2022/08/05 02:18:25;;;;;;;2.72;2.63;;;23.00;99.90;;;23.30;64.91;101503.78;5096536;28;20059;-66
2022/08/05 02:21:07;;;;;;;2.53;2.42;;;22.90;99.90;;;23.25;64.84;101503.09;5096158;28;20048;-66
2022/08/05 02:23:46;;;;;;;2.28;2.17;;;22.90;99.90;;;23.21;65.13;101507.78;5096482;28;20393;-66
2022/08/05 02:26:23;;;;;;;2.30;2.20;;;22.90;99.90;;;23.18;65.38;101504.34;5096433;28;20219;-66
2022/08/05 02:28:56;;;;;;;2.30;2.20;;;22.80;99.90;;;23.14;65.14;101502.75;5096659;28;20040;-67
2022/08/05 02:31:32;;;;;;;2.03;1.92;;;22.80;99.90;;;23.19;65.08;101500.69;5096318;28;20516;-66
2022/08/05 02:34:07;;;;;;;2.50;2.40;;;22.80;99.90;;;23.14;65.49;101508.13;5096311;28;20036;-66
2022/08/05 02:36:42;;;;;;;2.38;2.28;;;22.80;99.90;;;23.04;65.59;101485.22;5078022;28;20109;-66
2022/08/05 02:39:12;;;;;;;2.30;2.20;;;22.80;99.90;;;23.16;65.71;101493.63;5096191;28;20040;-66
2022/08/05 02:41:42;;;;;;;2.53;2.42;;;22.80;99.90;;;23.15;66.04;101493.72;5095705;28;20044;-66
2022/08/05 02:44:30;;;;;;;1.98;1.88;;;22.80;99.90;;;23.00;65.48;101502.47;5095810;28;20126;-66
2022/08/05 02:47:00;;;;;;;;;;;22.70;99.90;;;23.05;65.55;101509.41;5078303;28;20455;-66
2022/08/05 02:49:35;;;;;;;2.37;2.27;;;22.70;99.90;;;23.04;65.57;101504.09;5095993;28;19924;-66
2022/08/05 02:52:14;;;;;;;2.20;2.10;;;22.70;99.90;;;22.05;65.34;101326.09;5095625;28;20066;-66
2022/08/05 02:55:00;;;;;;;2.42;2.33;;;22.70;99.90;;;23.04;65.07;101509.50;5095579;28;20036;-66
2022/08/05 02:57:34;;;;;;;2.40;2.30;;;22.70;99.90;;;22.92;65.93;101520.84;5095646;28;20044;-66
2022/08/05 03:00:23;;;;;;;2.17;2.08;;;22.60;99.90;;;22.95;65.86;101523.44;5095735;28;20072;-67
2022/08/05 03:02:58;;;;;;;2.25;2.15;;;22.60;99.90;;;22.85;66.10;101524.78;5095709;28;20044;-66
2022/08/05 03:05:27;;;;;;;2.15;2.05;;;22.50;99.90;;;22.83;65.87;101526.66;5095349;28;20047;-66
2022/08/05 03:08:17;;;;;;;2.22;2.13;;;22.50;99.90;;;22.78;66.17;101526.00;5095366;28;20544;-66
2022/08/05 03:10:57;;;;;;;1.98;1.88;;;22.40;99.90;;;22.78;65.85;101517.91;5095309;28;20048;-67
2022/08/05 03:13:45;;;;;;;2.50;2.40;;;22.40;99.90;;;22.84;65.76;101531.13;5095207;28;20047;-66
2022/08/05 03:16:29;;;;;;;2.30;2.20;;;22.40;99.90;;;22.79;65.70;101525.03;5095162;28;20047;-66
2022/08/05 03:19:00;;;;;;;2.50;2.40;;;22.40;99.90;;;22.75;65.74;101534.22;5095044;28;20089;-66
2022/08/05 03:21:39;;;;;;;2.55;2.45;;;22.40;99.90;;;22.69;66.12;101540.75;5095505;28;20044;-66
2022/08/05 03:24:17;;;;;;;2.20;2.10;;;22.30;99.90;;;22.56;66.11;101519.75;5094992;28;20040;-66
2022/08/05 03:26:57;;;;;;;2.05;1.95;;;22.30;99.90;;;22.54;66.29;101532.41;5095198;28;20097;-66
2022/08/05 03:29:26;;;;;;;2.47;2.38;;;22.20;99.90;;;22.66;65.87;101543.59;5077008;28;20040;-66
2022/08/05 03:32:15;;;;;;;2.30;2.20;;;22.20;99.90;;;22.43;66.16;101538.28;5095086;28;20048;-66
2022/08/05 03:34:46;;;;;;;2.20;2.10;;;22.10;99.90;;;22.50;66.40;101542.47;5095132;28;20036;-66
2022/08/05 03:37:19;;;;;;;2.38;2.28;;;22.10;99.90;;;22.39;66.43;101551.03;5094767;28;20067;-66
2022/08/05 03:39:55;;;;;;;2.40;2.30;;;22.00;99.90;;;21.67;67.07;101439.97;5094704;28;20055;-67
2022/08/05 03:42:26;;;;;;;2.42;2.33;;;21.90;99.90;;;22.26;66.89;101538.13;5094684;28;20052;-67
2022/08/05 03:44:56;;;;;;;2.33;2.22;;;21.90;99.90;;;22.30;66.90;101537.03;5094584;28;20044;-66
2022/08/05 03:47:24;;;;;;;2.30;2.20;;;21.90;99.90;;;22.22;66.74;101531.97;5094778;28;20040;-66
2022/08/05 03:49:59;;;;;;;2.78;2.67;;;21.90;99.90;;;22.22;66.74;101531.97;5095009;28;20043;-66
2022/08/05 03:52:33;;;;;;;2.55;2.45;;;21.90;99.90;;;22.21;67.05;101535.63;5094693;28;20050;-66
2022/08/05 03:55:28;;;;;;;2.75;2.65;;;21.90;99.90;;;22.17;66.82;101542.06;5094430;28;20131;-66
2022/08/05 03:58:20;;;;;;;2.65;2.55;;;21.90;99.90;;;21.58;67.38;101422.41;5076448;28;20496;-66
2022/08/05 04:01:00;;;;;;;2.35;2.25;;;21.80;99.90;;;22.15;67.33;101529.59;5094338;28;20044;-66
2022/08/05 04:03:36;;;;;;;2.58;2.47;;;21.80;99.90;;;22.15;67.11;101519.69;5094182;28;20040;-66
2022/08/05 04:06:07;;;;;;;2.20;2.10;;;21.80;99.90;;;21.16;66.57;101348.75;5076314;28;20048;-66
2022/08/05 04:08:37;;;;;;;2.22;2.13;;;21.80;99.90;;;22.07;67.17;101529.91;5094198;28;20153;-67
2022/08/05 04:11:07;;;;;;;2.63;2.53;;;21.70;99.90;;;22.09;67.33;101530.72;5094099;28;20465;-68
2022/08/05 04:13:40;;;;;;;2.50;2.40;;;21.70;99.90;;;22.01;67.23;101523.91;5094218;28;20039;-65
2022/08/05 04:16:20;;;;;;;2.33;2.22;;;21.70;99.90;;;21.95;67.05;101519.63;5094296;28;20048;-64
2022/08/05 04:18:56;;;;;;;2.50;2.40;;;21.60;99.90;;;22.00;67.27;101517.63;5076038;28;20101;-63
2022/08/05 04:21:29;;;;;;;2.55;2.45;;;21.60;99.90;;;21.99;67.02;101515.88;5094510;28;20062;-64
2022/08/05 04:24:17;;;;;;;2.42;2.33;;;21.60;99.90;;;21.94;67.19;101517.88;5093817;28;20474;-65
2022/08/05 04:26:50;;;;;;;2.42;2.33;;;21.60;99.90;;;21.99;67.13;101526.66;5093854;28;20040;-64
2022/08/05 04:29:18;;;;;;;2.10;2.00;;;21.60;99.90;;;21.95;67.06;101519.63;5093746;28;20400;-64
2022/08/05 04:31:47;;;;;;;2.30;2.20;;;21.60;99.90;;;21.96;67.10;101516.00;5093755;28;20141;-64
2022/08/05 04:34:16;;;;;;;2.30;2.20;;;21.60;99.90;;;21.93;66.96;101518.81;5093671;28;20130;-64
2022/08/05 04:37:03;;;;;;;2.30;2.20;;;21.60;99.90;;;21.94;66.69;101525.09;5093802;28;20048;-64
2022/08/05 04:39:33;;;;;;;2.20;2.10;;;21.60;99.90;;;21.90;67.26;101526.16;5093591;28;20044;-64
2022/08/05 04:42:02;;;;;;;;;;;21.60;99.90;;;21.88;67.10;101525.31;5094348;28;20079;-64
2022/08/05 04:44:31;;;;;;;2.38;2.28;;;21.50;99.90;;;21.92;66.42;101527.84;5092411;28;19928;-64
2022/08/05 04:47:00;;;;;;;2.35;2.25;;;21.50;99.90;;;21.89;66.48;101519.03;5093477;28;20130;-64
2022/08/05 04:49:47;;;;;;;2.42;2.33;;;21.50;99.90;;;21.94;66.60;101522.38;5093769;28;20037;-64
2022/08/05 04:52:37;;;;;;;2.17;2.08;;;21.50;99.90;;;21.88;66.57;101526.22;5093396;28;20502;-64
2022/08/05 04:55:06;;;;;;;2.50;2.40;;;21.50;99.90;;;21.82;66.46;101518.38;5075481;28;20547;-64
2022/08/05 04:57:46;;;;;;;2.67;2.58;;;21.50;99.90;;;21.73;66.86;101510.63;5093618;28;20123;-64
2022/08/05 05:00:19;;;;;;;2.38;2.28;;;21.40;99.90;;;21.76;66.56;101520.41;5093347;28;20075;-64
2022/08/05 05:02:51;;;;;;;2.40;2.30;;;21.40;99.90;;;21.87;66.74;101516.41;5093235;28;20043;-64
2022/08/05 05:05:20;;;;;;;2.38;2.28;;;21.50;99.90;;;21.94;66.75;101525.97;5093197;28;20043;-64
2022/08/05 05:08:02;;;;;;;2.50;2.40;;;21.60;99.90;;;22.06;67.00;101522.78;5093256;28;20032;-64
2022/08/05 05:10:33;;;;;;;2.55;2.45;;;21.60;99.90;;;22.15;66.78;101532.28;5093782;28;20067;-64
2022/08/05 05:13:02;;;;;;;2.42;2.33;;;21.70;99.90;;;22.20;66.03;101536.53;5093166;28;20447;-64
2022/08/05 05:15:33;;;;;;;2.92;2.83;;;21.80;99.90;;;22.20;65.65;101533.84;5093188;28;20443;-64
2022/08/05 05:18:22;;;;;;;2.35;2.25;;;21.80;99.90;;;21.69;65.59;101425.53;5093149;28;20458;-64
2022/08/05 05:21:02;;;;;;;3.78;3.58;;;21.90;99.90;;;22.36;65.26;101543.06;5093124;28;20127;-64
2022/08/05 05:23:32;;;;;;;2.33;2.22;;;22.00;99.90;;;22.39;65.24;101539.34;5097552;28;20133;-64
2022/08/05 05:26:21;;;;;;;2.40;2.30;;;22.10;99.90;;;22.52;64.93;101540.59;5097305;28;20036;-64
2022/08/05 05:29:00;;;;;;;2.25;2.15;;;22.20;99.90;;;22.59;64.63;101539.41;5097249;28;20327;-64
2022/08/05 05:31:30;;;;;;;2.40;2.30;;;22.20;99.90;;;22.64;64.11;101541.91;5097465;28;20126;-64
2022/08/05 05:33:58;;;;;;;2.90;2.80;;;22.30;99.90;;;22.78;64.01;101552.97;5097306;28;20040;-64
2022/08/05 05:36:30;;;;;;;2.50;2.40;;;22.40;99.90;;;22.87;62.86;101556.16;5097080;28;20465;-64
2022/08/05 05:39:00;;;;;;;2.45;2.35;;;22.50;99.90;;;22.89;62.88;101553.38;5097164;28;20443;-64
2022/08/05 05:41:32;;;;;;;2.50;2.40;;;22.60;99.90;;;22.80;62.66;101543.00;5075422;28;20049;-64
2022/08/05 05:44:09;;;;;;;2.60;2.50;;;22.60;99.90;;;22.94;62.11;101567.53;5076610;28;20067;-64
2022/08/05 05:46:58;;;;;;;2.65;2.55;;;22.60;99.90;;;22.94;62.51;101572.94;5076531;28;20117;-64
2022/08/05 05:49:40;;;;;;;2.50;2.40;;;22.60;99.90;;;23.04;62.04;101579.69;5076488;28;20478;-64
2022/08/05 05:52:08;;;;;;;2.70;2.60;;;22.70;99.90;;;23.16;61.49;101581.84;5076529;28;20060;-64
2022/08/05 05:54:54;;;;;;;2.45;2.35;;;22.80;99.90;;;23.18;61.49;101588.03;5076740;28;20048;-64
2022/08/05 05:57:23;;;;;;;2.50;2.40;;;22.90;99.90;;;23.28;61.70;101587.56;5076362;28;20450;-64
2022/08/05 06:00:13;;;;;;;2.25;2.15;;;23.00;99.90;;;23.39;61.41;101581.69;5075189;28;20135;-64
2022/08/05 06:02:42;;;;;;;2.53;2.42;;;23.10;99.90;;;23.52;60.59;101580.19;5076478;28;20044;-64
2022/08/05 06:05:12;;;;;;;2.20;2.10;;;23.20;99.90;;;23.53;60.64;101581.94;5076315;28;20064;-64
2022/08/05 06:07:45;;;;;;;1.80;1.80;;;23.30;99.90;;;23.80;60.20;101575.25;5076390;28;20063;-64
2022/08/05 06:10:30;;;;;;;2.03;1.92;;;23.50;99.90;;;24.00;59.34;101579.69;5076553;28;20039;-64
2022/08/05 06:13:05;;;;;;;2.30;2.20;;;23.60;99.90;;;24.15;58.78;101587.09;5076279;28;20078;-64
2022/08/05 06:15:33;;;;;;;2.33;2.22;;;23.70;99.90;;;24.18;57.90;101579.69;5074820;28;20534;-64
2022/08/05 06:18:22;;;;;;;2.40;2.30;;;23.80;99.90;;;24.27;57.52;101589.19;5076290;28;20051;-64
2022/08/05 06:20:59;;;;;;;2.58;2.47;;;23.90;99.90;;;24.40;57.30;101589.44;5076229;28;20048;-64
2022/08/05 06:23:28;;;;;;;2.30;2.20;;;24.00;99.90;;;24.51;57.60;101597.88;5076044;28;20058;-65
2022/08/05 06:26:13;;;;;;;1.85;1.80;;;24.20;99.90;;;24.48;56.92;101571.88;5075988;28;20121;-65
2022/08/05 06:28:51;;;;;;;2.13;2.03;;;24.30;99.90;;;24.78;56.85;101594.69;5075997;28;20070;-65
2022/08/05 06:31:19;;;;;;;2.03;1.92;;;24.40;99.90;;;24.83;56.07;101599.88;5076239;28;20123;-64
2022/08/05 06:33:49;;;;;;;2.00;1.90;;;24.50;99.90;;;24.89;55.70;101607.69;5075713;28;20119;-65
2022/08/05 06:36:36;;;;;;;2.55;2.45;;;24.60;99.90;;;24.94;54.66;101601.09;5075872;28;20039;-65
2022/08/05 06:39:24;;;;;;;2.08;1.98;;;24.60;99.90;;;25.01;54.84;101604.31;5075902;28;20397;-65
2022/08/05 06:41:56;;;;;;;2.03;1.92;;;24.70;99.90;;;25.09;53.82;101609.38;5090465;28;20059;-65
2022/08/05 06:44:26;;;;;;;2.20;2.10;;;24.70;99.90;;;25.09;53.50;101601.25;5095570;28;20389;-65
2022/08/05 06:46:55;;;;;;;1.60;1.60;;;24.80;99.90;;;25.01;53.60;101593.50;5077712;28;20540;-66
2022/08/05 06:49:23;;;;;;;2.20;2.10;;;24.80;99.90;;;25.10;53.89;101617.41;5095863;28;20147;-65
2022/08/05 06:52:12;;;;;;;2.13;2.03;;;24.80;99.90;;;25.09;53.56;101612.06;5095745;28;20460;-65
2022/08/05 06:55:00;;;;;;;1.98;1.88;;;24.80;99.90;;;25.05;53.77;101616.75;5095921;28;20122;-64
2022/08/05 06:57:31;;;;;;;2.10;2.00;;;24.80;99.90;;;24.92;53.84;101599.41;5095730;28;20459;-65
2022/08/05 07:00:20;;;;;;;2.00;1.90;;;24.80;99.90;;;25.24;53.32;101622.94;5095512;28;20032;-64
2022/08/05 07:02:52;;;;;;;2.50;2.40;;;24.90;99.90;;;25.30;53.21;101619.91;5095364;28;20046;-66
2022/08/05 07:05:21;;;;;;;2.20;2.10;;;25.00;99.90;;;25.29;52.78;101637.13;5095279;28;20127;-65
2022/08/05 07:08:06;;;;;;;2.00;1.90;;;25.00;99.90;;;25.27;51.49;101630.94;5095194;28;20455;-65
2022/08/05 07:10:39;;;;;;;1.67;1.67;;;25.00;99.90;;;25.32;51.78;101627.97;5095579;28;20420;-64
2022/08/05 07:19:33;;;;;;;2.13;2.03;;;24.40;99.90;;;24.42;53.64;101644.34;5095049;28;20397;-64
2022/08/05 07:22:21;;;;;;;2.20;2.10;;;24.20;99.90;;;24.33;53.26;101642.09;5095130;28;20131;-63
2022/08/05 07:24:58;;;;;;;2.00;1.90;;;24.10;99.90;;;24.34;52.74;101651.97;5077061;28;20051;-63
2022/08/05 07:27:47;;;;;;;2.67;2.58;;;24.20;99.90;;;24.18;51.15;101652.72;5095460;28;20036;-63
2022/08/05 07:30:30;;;;;;;2.83;2.72;;;24.00;99.90;;;24.05;50.86;101648.84;5095069;28;20040;-64
2022/08/05 07:33:01;;;;;;;2.33;2.22;;;23.90;99.90;;;24.06;51.37;101658.69;5094808;28;20485;-64
2022/08/05 07:35:37;;;;;;;2.50;2.40;;;23.80;99.90;;;24.18;51.76;101662.63;5095315;28;20075;-65
2022/08/05 07:38:27;;;;;;;2.42;2.33;;;23.90;99.90;;;24.18;50.17;101663.53;5076773;28;20050;-65
2022/08/05 07:41:04;;;;;;;2.47;2.38;;;23.90;99.90;;;23.76;50.23;101679.03;5094554;28;20097;-68
2022/08/05 07:43:54;;;;;;;2.45;2.35;;;23.50;99.90;;;23.58;50.79;101635.75;5094727;28;20478;-68
2022/08/05 07:46:27;;;;;;;2.20;2.10;;;23.50;99.90;;;24.05;51.26;101692.09;5094789;28;20079;-67
2022/08/05 07:48:59;;;;;;;2.13;2.03;;;23.70;99.90;;;23.98;52.45;101696.00;5076647;28;20093;-68
2022/08/05 07:51:35;;;;;;;2.70;2.60;;;23.70;99.90;;;23.86;52.09;101696.59;5094416;28;20072;-67
2022/08/05 07:54:25;;;;;;;2.00;1.90;;;23.60;99.90;;;23.83;52.78;101702.13;5076505;28;20448;-67
2022/08/05 07:57:02;;;;;;;2.50;2.40;;;23.50;99.90;;;23.80;53.78;101694.16;5076424;28;20476;-74
2022/08/05 07:59:50;;;;;;;2.20;2.10;;;23.50;99.90;;;23.62;54.98;101681.47;5094542;28;20036;-68
2022/08/05 08:02:25;;;;;;;2.33;2.22;;;23.50;99.90;;;23.67;54.52;101690.28;5094194;28;20044;-67
2022/08/05 08:04:58;;;;;;;2.75;2.65;;;23.50;99.90;;;23.53;54.08;101716.13;5094107;28;20054;-67
2022/08/05 08:07:28;;;;;;;2.28;2.17;;;23.30;99.90;;;23.39;54.70;101705.94;5094308;28;20105;-68
2022/08/05 08:10:16;;;;;;;2.60;2.50;;;23.20;99.90;;;23.17;54.64;101721.28;5094020;28;20047;-68
2022/08/05 08:12:48;;;;;;;2.30;2.20;;;22.90;99.90;;;23.34;54.60;101718.78;5076063;28;20109;-68
2022/08/05 08:15:17;;;;;;;2.30;2.20;;;23.00;99.90;;;23.28;54.63;101721.69;5093753;28;20048;-68
2022/08/05 08:18:07;;;;;;;2.47;2.38;;;23.00;99.90;;;23.22;54.48;101730.06;5093923;28;20115;-68
2022/08/05 08:20:41;;;;;;;2.60;2.50;;;22.90;99.90;;;23.29;54.53;101728.84;5093898;28;20105;-68
2022/08/05 08:23:30;;;;;;;2.00;1.90;;;23.00;99.90;;;23.32;54.16;101735.97;5076271;28;20113;-67
2022/08/05 08:26:18;;;;;;;2.17;2.08;;;23.10;99.90;;;23.27;54.02;101722.63;5093857;28;20047;-68
2022/08/05 08:28:58;;;;;;;2.30;2.20;;;23.10;99.90;;;23.38;53.08;101733.91;5093592;28;20040;-68
2022/08/05 08:31:47;;;;;;;2.40;2.30;;;23.20;99.90;;;23.34;52.93;101747.59;5093779;28;20465;-68
2022/08/05 08:34:17;;;;;;;2.35;2.25;;;23.10;99.90;;;23.29;52.43;101742.34;5094003;28;20105;-68
2022/08/05 08:37:00;;;;;;;2.50;2.40;;;23.10;99.90;;;23.08;52.36;101740.56;5093820;28;20040;-68
2022/08/05 08:39:33;;;;;;;2.47;2.38;;;23.00;99.90;;;23.16;52.32;101758.22;5093887;28;20044;-68
2022/08/05 08:42:06;;;;;;;2.40;2.30;;;22.90;99.90;;;23.17;51.92;101740.19;5093777;28;20080;-68
2022/08/05 08:44:56;;;;;;;2.55;2.45;;;23.00;99.90;;;23.20;51.62;101754.44;5093295;28;20131;-68
2022/08/05 08:47:47;;;;;;;2.47;2.38;;;23.00;99.90;;;23.10;51.64;101765.69;5093507;28;20119;-67
2022/08/05 08:50:41;;;;;;;2.70;2.60;;;23.00;99.90;;;22.94;51.91;101768.13;5075528;28;20386;-68
2022/08/05 08:53:36;;;;;;;2.35;2.25;;;22.70;99.90;;;22.79;52.52;101775.97;5093267;28;20067;-67
2022/08/05 08:56:11;;;;;;;2.38;2.28;;;22.60;99.90;;;22.58;52.56;101771.44;5092319;28;20044;-68
2022/08/05 08:58:41;;;;;;;2.42;2.33;;;22.30;99.90;;;22.57;51.91;101769.69;5093253;28;20093;-67
2022/08/05 09:01:15;;;;;;;2.92;2.83;;;22.30;99.90;;;22.30;52.74;101779.66;5093272;28;20051;-67
2022/08/05 09:03:48;;;;;;;2.85;2.75;;;22.00;99.90;;;21.80;55.08;101794.09;5093561;28;20124;-67
2022/08/05 09:06:25;;;;;;;2.70;2.60;;;21.60;99.90;;;21.79;55.21;101785.16;5093149;28;20040;-67
2022/08/05 09:08:59;;;;;;;2.47;2.38;;;21.40;99.90;;;21.86;55.67;101789.41;5093171;28;20040;-68
2022/08/05 09:11:29;;;;;;;2.50;2.40;;;21.40;99.90;;;22.08;55.50;101793.09;5075314;28;20477;-68
2022/08/05 09:14:18;;;;;;;2.67;2.58;;;21.60;99.90;;;22.09;54.93;101792.16;5093071;28;20040;-68
2022/08/05 09:17:09;;;;;;;2.40;2.30;;;21.70;99.90;;;22.20;54.97;101803.41;5093582;28;20044;-68
2022/08/05 09:19:59;;;;;;;2.33;2.22;;;21.80;99.90;;;21.82;55.78;101805.75;5093057;28;20072;-67
2022/08/05 09:23:11;;;;;;;2.58;2.47;;;21.50;99.90;;;21.86;55.01;101797.50;5093393;28;20040;-67
2022/08/05 09:25:49;;;;;;;2.50;2.40;;;21.60;99.90;;;22.04;54.86;101798.66;5092969;28;20040;-67
2022/08/05 09:28:31;;;;;;;2.45;2.35;;;21.60;99.90;;;22.24;55.07;101804.19;5093251;28;20048;-67
2022/08/05 09:31:07;;;;;;;2.88;2.78;;;21.90;99.90;;;21.73;55.93;101820.41;5093193;28;20050;-68
2022/08/05 09:33:58;;;;;;;2.75;2.65;;;21.60;99.90;;;21.64;56.39;101809.94;5092871;28;20048;-67
2022/08/05 09:36:40;;;;;;;2.45;2.35;;;21.40;99.90;;;21.78;56.63;101818.41;5092818;28;20469;-67
2022/08/05 09:39:25;;;;;;;2.47;2.38;;;21.50;99.90;;;21.50;56.77;101823.00;5093115;28;20044;-67
2022/08/05 09:42:14;;;;;;;3.85;3.10;;;21.20;99.90;;;21.36;56.88;101830.66;5093000;28;20525;-67
2022/08/05 09:44:53;;;;;;;2.45;2.35;;;21.00;99.90;;;21.38;57.46;101821.63;5092773;28;20101;-67
2022/08/05 09:47:26;;;;;;;2.80;2.70;;;21.00;99.90;;;21.34;57.69;101835.22;5092985;28;20540;-67
2022/08/05 09:50:20;;;;;;;2.28;2.17;;;20.90;99.90;;;21.29;58.55;101834.50;5092936;28;20055;-67
2022/08/05 09:53:06;;;;;;;2.53;2.42;;;20.90;99.90;;;21.10;58.22;101841.44;5092483;28;20040;-68
2022/08/05 09:55:41;;;;;;;2.55;2.45;;;20.80;99.90;;;21.23;57.88;101840.09;5093168;28;20443;-67
2022/08/05 09:58:27;;;;;;;2.50;2.40;;;20.80;99.90;;;21.24;57.26;101852.59;5092692;28;20123;-67
2022/08/05 10:00:59;;;;;;;5.50;3.25;;;20.90;99.90;;;21.00;56.94;101846.16;5074545;28;20077;-67
2022/08/05 10:03:30;;;;;;;2.45;2.35;;;20.70;99.90;;;21.05;53.98;101846.94;5092849;28;20556;-67
2022/08/05 10:06:20;;;;;;;2.80;2.70;;;20.70;99.90;;;21.04;52.75;101853.25;5092798;28;20094;-68
2022/08/05 10:08:48;;;;;;;2.40;2.30;;;20.70;99.90;;;21.15;52.95;101852.91;5095907;28;20036;-68
2022/08/05 10:11:22;;;;;;;2.90;2.80;;;20.80;99.90;;;21.03;53.30;101859.56;5078413;28;20071;-67
2022/08/05 10:13:58;;;;;;;2.53;2.42;;;20.70;99.90;;;21.13;52.90;101857.47;5078328;28;20061;-67
2022/08/05 10:16:33;;;;;;;2.50;2.40;;;20.80;99.90;;;21.24;52.84;101855.28;5096163;28;20493;-67
2022/08/05 10:19:20;;;;;;;2.65;2.55;;;20.90;99.90;;;21.39;54.21;101854.78;5096503;28;20140;-67
2022/08/05 10:22:09;;;;;;;2.80;2.70;;;21.00;99.90;;;21.52;53.53;101854.31;5096633;28;20040;-67
2022/08/05 10:24:57;;;;;;;2.90;2.80;;;21.10;99.90;;;21.69;54.70;101851.06;5096371;28;20040;-67
2022/08/05 10:27:28;;;;;;;2.83;2.72;;;21.30;99.90;;;21.72;53.06;101850.94;5096113;28;20048;-67
2022/08/05 10:30:17;;;;;;;2.55;2.45;;;21.30;99.90;;;21.89;52.88;101855.81;5095958;28;20037;-67
2022/08/05 10:33:07;;;;;;;2.67;2.58;;;21.50;99.90;;;21.95;52.49;101845.66;5095825;28;20118;-67
2022/08/05 10:35:42;;;;;;;2.85;2.75;;;21.60;99.90;;;22.13;51.87;101850.41;5095878;28;20040;-68
2022/08/05 10:38:13;;;;;;;2.65;2.55;;;21.80;99.90;;;22.47;52.40;101860.84;5096154;28;20051;-67
2022/08/05 10:40:51;;;;;;;;;;;22.10;99.90;;;22.35;52.58;101864.88;5096214;28;20056;-67
2022/08/05 10:43:37;;;;;;;3.03;2.92;;;22.00;99.90;;;22.47;52.71;101863.53;5095729;28;20242;-67
2022/08/05 10:46:09;;;;;;;2.95;2.85;;;22.20;99.90;;;22.40;52.99;101867.38;5095841;28;20093;-68
2022/08/05 10:48:40;;;;;;;2.60;2.50;;;22.10;99.90;;;22.45;52.13;101849.22;5095465;28;20492;-68
2022/08/05 10:51:42;;;;;;;2.83;2.72;;;22.20;99.90;;;22.49;51.40;101869.75;5096185;28;20502;-67
2022/08/05 10:54:47;;;;;;;3.13;3.03;;;22.20;99.90;;;22.55;51.26;101865.94;5095676;28;20040;-68
2022/08/05 10:57:28;;;;;;;2.72;2.63;;;22.20;99.90;;;22.52;52.10;101876.81;5095465;28;20046;-67
2022/08/05 11:00:12;;;;;;;2.63;2.53;;;22.20;99.90;;;22.64;52.19;101876.41;5077593;28;20062;-67
2022/08/05 11:03:13;;;;;;;2.67;2.58;;;22.30;99.90;;;22.68;50.25;101881.63;5095601;28;20119;-68
2022/08/05 11:06:09;;;;;;;2.55;2.45;;;22.30;99.90;;;22.26;48.25;101870.56;5095561;28;20395;-67